createdAt,value
2019-05-09T00:02:27.480Z,9.70
2019-05-09T00:05:03.570Z,9.70
2019-05-09T00:07:33.702Z,9.60
2019-05-09T00:10:04.007Z,9.60
2019-05-09T00:12:33.676Z,9.60
2019-05-09T00:15:05.890Z,9.50
2019-05-09T00:17:35.754Z,9.50
2019-05-09T00:20:15.099Z,9.50
2019-05-09T00:22:44.141Z,9.50
2019-05-09T00:25:13.254Z,9.50
2019-05-09T00:27:43.528Z,9.40
2019-05-09T00:30:13.934Z,9.40
2019-05-09T00:32:43.780Z,9.50
2019-05-09T00:35:28.683Z,9.50
2019-05-09T00:38:08.363Z,9.40
2019-05-09T00:40:37.428Z,9.40
2019-05-09T00:43:06.313Z,9.40
2019-05-09T00:46:06.706Z,9.40
2019-05-09T00:48:45.937Z,9.30
2019-05-09T00:51:16.874Z,9.30
2019-05-09T00:53:45.894Z,9.30
2019-05-09T00:56:14.782Z,9.30
2019-05-09T00:58:44.184Z,9.20
2019-05-09T01:01:14.306Z,9.20
2019-05-09T01:03:43.398Z,9.20
2019-05-09T01:06:13.390Z,9.10
2019-05-09T01:08:44.207Z,9.10
2019-05-09T01:11:15.620Z,9.10
2019-05-09T01:13:44.425Z,9.10
2019-05-09T01:16:13.524Z,9.10
2019-05-09T01:18:43.768Z,9.00
2019-05-09T01:21:13.539Z,9.00
2019-05-09T01:23:43.568Z,9.00
2019-05-09T01:26:13.358Z,9.00
2019-05-09T01:28:44.257Z,9.00
2019-05-09T01:31:13.427Z,8.90
2019-05-09T01:33:48.147Z,8.90
2019-05-09T01:36:16.985Z,8.90
2019-05-09T01:38:46.257Z,8.80
2019-05-09T01:41:26.710Z,8.80
2019-05-09T01:43:46.082Z,8.80
2019-05-09T01:46:15.029Z,8.80
2019-05-09T01:48:44.197Z,8.80
2019-05-09T01:51:14.017Z,8.80
2019-05-09T01:53:48.997Z,8.80
2019-05-09T01:56:17.828Z,8.80
2019-05-09T01:58:46.722Z,8.70
2019-05-09T02:01:16.115Z,8.80
2019-05-09T02:03:44.921Z,8.80
2019-05-09T02:06:16.243Z,8.80
2019-05-09T02:08:45.361Z,8.80
2019-05-09T02:11:14.261Z,8.70
2019-05-09T02:13:44.187Z,8.70
2019-05-09T02:16:23.447Z,8.70
2019-05-09T02:19:03.911Z,8.70
2019-05-09T02:21:34.361Z,8.70
2019-05-09T02:24:03.339Z,8.70
2019-05-09T02:26:33.500Z,8.60
2019-05-09T02:29:03.370Z,8.70
2019-05-09T02:31:35.362Z,8.60
2019-05-09T02:34:04.961Z,8.70
2019-05-09T02:36:34.458Z,8.60
2019-05-09T02:39:04.764Z,8.60
2019-05-09T02:41:33.961Z,8.60
2019-05-09T02:44:03.336Z,8.60
2019-05-09T02:46:41.228Z,8.60
2019-05-09T02:49:10.786Z,8.60
2019-05-09T02:51:44.935Z,8.50
2019-05-09T02:54:14.161Z,8.50
2019-05-09T02:56:43.241Z,8.60
2019-05-09T02:59:38.683Z,8.50
2019-05-09T03:02:28.870Z,8.60
2019-05-09T03:04:58.421Z,8.50
2019-05-09T03:07:48.250Z,8.50
2019-05-09T03:10:19.097Z,8.50
2019-05-09T03:12:50.064Z,8.50
2019-05-09T03:15:19.045Z,8.40
2019-05-09T03:17:49.403Z,8.40
2019-05-09T03:20:39.254Z,8.30
2019-05-09T03:23:09.226Z,8.30
2019-05-09T03:25:40.791Z,8.30
2019-05-09T03:28:25.205Z,8.30
2019-05-09T03:30:58.925Z,8.40
2019-05-09T03:33:29.555Z,8.30
2019-05-09T03:35:57.872Z,8.30
2019-05-09T03:38:28.430Z,8.30
2019-05-09T03:40:58.132Z,8.30
2019-05-09T03:43:28.337Z,8.20
2019-05-09T03:46:04.165Z,8.20
2019-05-09T03:48:40.911Z,8.30
2019-05-09T03:51:10.154Z,8.30
2019-05-09T03:53:39.111Z,8.30
2019-05-09T03:56:11.137Z,8.30
2019-05-09T03:58:40.501Z,8.30
2019-05-09T04:01:11.101Z,8.30
2019-05-09T04:03:40.233Z,8.20
2019-05-09T04:06:09.158Z,8.20
2019-05-09T04:08:38.131Z,8.20
2019-05-09T04:11:08.667Z,8.20
2019-05-09T04:13:43.282Z,8.20
2019-05-09T04:16:13.360Z,8.20
2019-05-09T04:18:42.204Z,8.20
2019-05-09T04:21:11.505Z,8.10
2019-05-09T04:23:40.433Z,8.20
2019-05-09T04:26:44.295Z,8.20
2019-05-09T04:29:13.359Z,8.20
2019-05-09T04:31:42.327Z,8.20
2019-05-09T04:34:11.377Z,8.20
2019-05-09T04:36:40.250Z,8.30
2019-05-09T04:39:18.089Z,8.30
2019-05-09T04:41:44.046Z,8.40
2019-05-09T04:44:20.839Z,8.40
2019-05-09T04:46:48.820Z,8.40
2019-05-09T04:49:19.080Z,8.40
2019-05-09T04:51:48.626Z,8.50
2019-05-09T04:54:17.869Z,8.50
2019-05-09T04:56:47.543Z,8.60
2019-05-09T04:59:17.924Z,8.70
2019-05-09T05:02:08.558Z,8.70
2019-05-09T05:04:37.433Z,8.80
2019-05-09T05:07:07.668Z,8.90
2019-05-09T05:09:37.933Z,8.90
2019-05-09T05:12:08.365Z,9.00
2019-05-09T05:14:38.512Z,9.00
2019-05-09T05:17:11.063Z,9.10
2019-05-09T05:19:38.559Z,9.10
2019-05-09T05:22:22.544Z,9.20
2019-05-09T05:24:55.915Z,9.20
2019-05-09T05:27:27.543Z,9.30
2019-05-09T05:29:58.105Z,9.40
2019-05-09T05:32:38.704Z,9.40
2019-05-09T05:35:31.516Z,9.50
2019-05-09T05:38:00.432Z,9.60
2019-05-09T05:40:32.833Z,9.70
2019-05-09T05:42:59.802Z,9.70
2019-05-09T05:45:30.825Z,9.80
2019-05-09T05:48:14.063Z,10.00
2019-05-09T05:50:43.117Z,10.10
2019-05-09T05:53:11.945Z,10.20
2019-05-09T05:55:40.852Z,10.30
2019-05-09T05:58:10.490Z,10.40
2019-05-09T06:00:39.677Z,10.70
2019-05-09T06:03:08.905Z,12.30
2019-05-09T06:05:38.399Z,13.00
2019-05-09T06:08:08.171Z,13.20
2019-05-09T06:10:37.839Z,12.90
2019-05-09T06:13:07.941Z,13.00
2019-05-09T06:15:37.901Z,12.90
2019-05-09T06:18:08.106Z,12.30
2019-05-09T06:20:38.556Z,12.20
2019-05-09T06:23:08.643Z,12.30
2019-05-09T06:25:38.910Z,12.30
2019-05-09T06:28:07.964Z,12.20
2019-05-09T06:30:40.887Z,12.30
2019-05-09T06:33:09.274Z,12.20
2019-05-09T06:35:38.246Z,12.30
2019-05-09T06:38:07.944Z,12.20
2019-05-09T06:40:38.339Z,12.30
2019-05-09T06:43:21.471Z,12.30
2019-05-09T06:46:19.077Z,12.40
2019-05-09T06:48:48.757Z,12.70
2019-05-09T06:51:20.997Z,12.90
2019-05-09T06:53:48.903Z,12.50
2019-05-09T06:56:18.021Z,12.70
2019-05-09T06:58:48.109Z,12.80
2019-05-09T07:01:28.912Z,12.90
2019-05-09T07:04:19.709Z,12.90
2019-05-09T07:06:52.690Z,13.20
2019-05-09T07:09:34.038Z,13.10
2019-05-09T07:12:03.126Z,13.20
2019-05-09T07:14:37.527Z,13.20
2019-05-09T07:17:04.230Z,13.40
2019-05-09T07:19:33.837Z,13.30
2019-05-09T07:22:28.245Z,13.50
2019-05-09T07:25:24.518Z,13.50
2019-05-09T07:27:53.638Z,13.40
2019-05-09T07:30:40.924Z,13.60
2019-05-09T07:33:25.069Z,13.80
2019-05-09T07:35:54.022Z,13.90
2019-05-09T07:38:29.993Z,13.90
2019-05-09T07:40:59.814Z,14.00
2019-05-09T07:43:28.820Z,14.30
2019-05-09T07:46:18.076Z,14.40
2019-05-09T07:48:48.347Z,14.70
2019-05-09T07:51:18.154Z,14.70
2019-05-09T07:53:48.182Z,14.10
2019-05-09T07:56:18.662Z,14.40
2019-05-09T07:58:47.884Z,14.30
2019-05-09T08:01:19.081Z,14.20
2019-05-09T08:03:49.037Z,14.50
2019-05-09T08:06:18.613Z,14.30
2019-05-09T08:08:47.778Z,14.60
2019-05-09T08:11:18.014Z,14.80
2019-05-09T08:13:48.560Z,14.90
2019-05-09T08:16:18.615Z,14.90
2019-05-09T08:18:48.389Z,14.90
2019-05-09T08:21:22.714Z,14.90
2019-05-09T08:23:51.667Z,14.80
2019-05-09T08:26:20.557Z,14.70
2019-05-09T08:28:49.654Z,14.70
2019-05-09T08:31:18.624Z,14.80
2019-05-09T08:33:48.432Z,14.50
2019-05-09T08:36:20.173Z,14.50
2019-05-09T08:38:48.383Z,14.50
2019-05-09T08:41:18.662Z,14.60
2019-05-09T08:43:48.483Z,14.80
2019-05-09T08:46:18.181Z,14.80
2019-05-09T08:48:48.548Z,15.20
2019-05-09T08:51:35.342Z,14.90
2019-05-09T08:53:57.902Z,14.90
2019-05-09T08:56:28.363Z,15.00
2019-05-09T08:59:01.241Z,15.00
2019-05-09T09:01:46.030Z,15.20
2019-05-09T09:03:58.829Z,14.90
2019-05-09T09:06:27.925Z,14.80
2019-05-09T09:08:57.577Z,15.40
2019-05-09T09:11:28.017Z,15.80
2019-05-09T09:13:57.661Z,16.20
2019-05-09T09:16:28.346Z,16.40
2019-05-09T09:18:58.416Z,16.70
2019-05-09T09:21:28.564Z,15.90
2019-05-09T09:23:58.373Z,16.40
2019-05-09T09:26:27.882Z,16.30
2019-05-09T09:28:57.793Z,15.90
2019-05-09T09:31:28.531Z,15.80
2019-05-09T09:34:02.128Z,15.80
2019-05-09T09:36:28.806Z,16.40
2019-05-09T09:38:58.671Z,15.70
2019-05-09T09:41:28.729Z,15.60
2019-05-09T09:43:58.433Z,15.50
2019-05-09T09:46:28.598Z,15.40
2019-05-09T09:48:58.845Z,15.30
2019-05-09T09:51:28.086Z,15.40
2019-05-09T09:53:58.285Z,16.00
2019-05-09T09:56:28.176Z,16.40
2019-05-09T09:59:15.230Z,16.10
2019-05-09T10:01:44.351Z,16.10
2019-05-09T10:04:20.651Z,16.70
2019-05-09T10:06:48.042Z,17.50
2019-05-09T10:09:17.457Z,17.80
2019-05-09T10:11:48.352Z,18.00
2019-05-09T10:14:22.830Z,18.30
2019-05-09T10:17:04.007Z,18.20
2019-05-09T10:19:38.466Z,18.00
2019-05-09T10:22:09.818Z,17.80
2019-05-09T10:24:38.638Z,18.20
2019-05-09T10:27:12.238Z,18.70
2019-05-09T10:29:41.152Z,18.60
2019-05-09T10:32:12.712Z,18.10
2019-05-09T10:34:42.026Z,17.60
2019-05-09T10:37:11.009Z,18.10
2019-05-09T10:39:39.814Z,17.90
2019-05-09T10:42:19.203Z,17.60
2019-05-09T10:44:53.165Z,17.60
2019-05-09T10:47:27.351Z,17.60
2019-05-09T10:49:58.221Z,17.60
2019-05-09T10:52:28.310Z,18.10
2019-05-09T10:54:58.693Z,17.90
2019-05-09T10:57:31.779Z,17.70
2019-05-09T10:59:58.234Z,17.50
2019-05-09T11:02:27.927Z,17.80
2019-05-09T11:04:58.123Z,18.00
2019-05-09T11:07:29.049Z,18.20
2019-05-09T11:09:58.792Z,19.20
2019-05-09T11:12:27.845Z,19.50
2019-05-09T11:14:59.421Z,20.00
2019-05-09T11:17:28.583Z,19.90
2019-05-09T11:19:58.719Z,19.70
2019-05-09T11:22:29.290Z,20.20
2019-05-09T11:24:58.658Z,19.80
2019-05-09T11:27:29.300Z,19.20
2019-05-09T11:29:58.681Z,19.10
2019-05-09T11:32:27.975Z,19.70
2019-05-09T11:34:57.692Z,19.40
2019-05-09T11:37:29.934Z,18.80
2019-05-09T11:40:02.102Z,18.20
2019-05-09T11:42:33.422Z,18.70
2019-05-09T11:45:01.922Z,19.00
2019-05-09T11:47:38.218Z,18.80
2019-05-09T11:50:01.684Z,18.80
2019-05-09T11:52:30.737Z,18.70
2019-05-09T11:54:59.587Z,18.30
2019-05-09T11:57:31.283Z,18.20
2019-05-09T11:59:59.256Z,18.50
2019-05-09T12:02:28.100Z,18.90
2019-05-09T12:04:57.146Z,18.90
2019-05-09T12:07:28.585Z,18.70
2019-05-09T12:09:58.961Z,18.80
2019-05-09T12:12:28.279Z,19.60
2019-05-09T12:14:58.222Z,19.30
2019-05-09T12:17:40.826Z,19.30
2019-05-09T12:20:09.551Z,18.90
2019-05-09T12:22:28.800Z,19.50
2019-05-09T12:24:59.199Z,20.10
2019-05-09T12:27:28.589Z,19.60
2019-05-09T12:29:58.293Z,19.20
2019-05-09T12:32:28.511Z,19.10
2019-05-09T12:34:58.409Z,18.50
2019-05-09T12:37:28.233Z,18.30
2019-05-09T12:39:58.604Z,18.50
2019-05-09T12:42:29.962Z,19.80
2019-05-09T12:44:59.110Z,20.40
2019-05-09T12:47:29.132Z,21.30
2019-05-09T12:50:02.459Z,21.40
2019-05-09T12:52:28.974Z,20.30
2019-05-09T12:54:58.329Z,20.10
2019-05-09T12:57:28.891Z,19.80
2019-05-09T12:59:58.834Z,19.90
2019-05-09T13:02:28.066Z,20.40
2019-05-09T13:04:57.343Z,20.80
2019-05-09T13:07:29.489Z,20.20
2019-05-09T13:09:58.254Z,19.80
2019-05-09T13:12:29.112Z,19.20
2019-05-09T13:14:58.523Z,18.60
2019-05-09T13:17:38.321Z,18.40
2019-05-09T13:20:08.297Z,19.30
2019-05-09T13:22:40.060Z,20.00
2019-05-09T13:25:09.705Z,20.40
2019-05-09T13:27:39.757Z,20.40
2019-05-09T13:30:09.713Z,20.10
2019-05-09T13:32:38.706Z,20.40
2019-05-09T13:35:10.253Z,21.30
2019-05-09T13:37:40.180Z,21.10
2019-05-09T13:40:09.516Z,20.90
2019-05-09T13:42:39.465Z,20.40
2019-05-09T13:45:09.483Z,20.20
2019-05-09T13:47:38.313Z,19.30
2019-05-09T13:50:08.807Z,19.20
2019-05-09T13:52:38.307Z,20.00
2019-05-09T13:55:08.672Z,20.60
2019-05-09T13:57:38.029Z,21.40
2019-05-09T14:00:08.907Z,20.80
2019-05-09T14:02:38.383Z,21.00
2019-05-09T14:05:08.903Z,20.90
2019-05-09T14:07:38.197Z,21.20
2019-05-09T14:10:10.407Z,21.60
2019-05-09T14:12:39.483Z,20.80
2019-05-09T14:15:08.689Z,20.10
2019-05-09T14:17:49.714Z,19.40
2019-05-09T14:20:14.374Z,19.00
2019-05-09T14:22:43.281Z,18.70
2019-05-09T14:25:12.397Z,18.30
2019-05-09T14:27:41.195Z,18.20
2019-05-09T14:30:10.569Z,18.30
2019-05-09T14:32:40.311Z,18.20
2019-05-09T14:35:09.501Z,18.00
2019-05-09T14:37:38.965Z,18.10
2019-05-09T14:40:10.343Z,18.60
2019-05-09T14:42:41.972Z,19.40
2019-05-09T14:45:10.997Z,19.80
2019-05-09T14:47:42.592Z,19.50
2019-05-09T14:50:11.428Z,19.50
2019-05-09T14:52:40.233Z,19.80
2019-05-09T14:55:10.524Z,19.90
2019-05-09T14:57:39.469Z,19.80
2019-05-09T15:00:09.269Z,19.80
2019-05-09T15:02:38.906Z,19.60
2019-05-09T15:05:09.614Z,19.30
2019-05-09T15:07:39.207Z,19.70
2019-05-09T15:10:08.885Z,19.70
2019-05-09T15:12:39.065Z,19.60
2019-05-09T15:15:11.160Z,19.20
2019-05-09T15:17:40.312Z,19.20
2019-05-09T15:20:10.072Z,19.30
2019-05-09T15:22:39.081Z,19.40
2019-05-09T15:25:09.055Z,19.10
2019-05-09T15:27:38.704Z,19.30
2019-05-09T15:30:09.877Z,19.30
2019-05-09T15:32:40.662Z,19.40
2019-05-09T15:35:09.720Z,19.40
2019-05-09T15:37:38.960Z,19.40
2019-05-09T15:40:09.701Z,19.30
2019-05-09T15:42:39.145Z,19.10
2019-05-09T15:45:09.692Z,18.70
2019-05-09T15:47:38.841Z,18.60
2019-05-09T15:50:19.179Z,18.70
2019-05-09T15:52:39.137Z,18.80
2019-05-09T15:55:10.605Z,18.90
2019-05-09T15:57:39.564Z,18.60
2019-05-09T16:00:10.729Z,18.40
2019-05-09T16:02:39.894Z,18.70
2019-05-09T16:05:10.610Z,18.70
2019-05-09T16:07:40.019Z,18.30
2019-05-09T16:10:09.176Z,18.10
2019-05-09T16:12:38.512Z,18.00
2019-05-09T16:15:08.015Z,17.90
2019-05-09T16:17:39.385Z,17.70
2019-05-09T16:20:08.574Z,17.60
2019-05-09T16:22:39.190Z,17.60
2019-05-09T16:28:28.361Z,17.50
2019-05-09T16:33:52.089Z,17.60
2019-05-09T16:36:39.076Z,17.60
2019-05-09T16:39:09.525Z,17.50
2019-05-09T16:41:43.086Z,17.50
2019-05-09T16:44:12.212Z,17.40
2019-05-09T16:46:41.292Z,17.50
2019-05-09T16:49:11.850Z,17.60
2019-05-09T16:51:41.380Z,17.40
2019-05-09T16:54:11.721Z,17.40
2019-05-09T16:56:40.562Z,17.50
2019-05-09T16:59:09.930Z,17.40
2019-05-09T17:01:46.366Z,17.40
2019-05-09T17:04:19.103Z,17.30
2019-05-09T17:06:49.733Z,17.30
2019-05-09T17:09:19.159Z,17.30
2019-05-09T17:11:48.274Z,17.30
2019-05-09T17:14:19.236Z,17.30
2019-05-09T17:16:49.456Z,17.30
2019-05-09T17:19:31.614Z,17.30
2019-05-09T17:22:17.451Z,17.20
2019-05-09T17:24:53.413Z,17.00
2019-05-09T17:27:22.804Z,17.00
2019-05-09T17:29:51.723Z,16.90
2019-05-09T17:32:20.624Z,16.50
2019-05-09T17:34:49.626Z,16.20
2019-05-09T17:37:18.481Z,15.90
2019-05-09T17:39:47.314Z,15.70
2019-05-09T17:42:18.360Z,15.50
2019-05-09T17:44:49.543Z,15.50
2019-05-09T17:47:21.893Z,15.40
2019-05-09T17:49:51.560Z,15.40
2019-05-09T17:52:25.452Z,15.30
2019-05-09T17:54:59.111Z,15.30
2019-05-09T17:57:31.307Z,15.20
2019-05-09T18:00:28.020Z,15.10
2019-05-09T18:03:07.205Z,15.10
2019-05-09T18:05:41.227Z,15.10
2019-05-09T18:08:10.501Z,15.00
2019-05-09T18:10:39.303Z,15.10
2019-05-09T18:13:08.447Z,15.00
2019-05-09T18:15:37.997Z,14.90
2019-05-09T18:18:07.094Z,14.90
2019-05-09T18:20:37.934Z,14.90
2019-05-09T18:23:08.254Z,14.80
2019-05-09T18:25:37.940Z,14.90
2019-05-09T18:28:07.390Z,14.80
2019-05-09T18:30:38.671Z,14.70
2019-05-09T18:33:15.802Z,14.60
2019-05-09T18:35:44.681Z,14.50
2019-05-09T18:38:20.414Z,14.40
2019-05-09T18:40:49.660Z,14.10
2019-05-09T18:43:18.453Z,13.80
2019-05-09T18:45:48.196Z,13.50
2019-05-09T18:48:18.698Z,13.40
2019-05-09T18:50:48.698Z,13.30
2019-05-09T18:53:42.261Z,13.30
2019-05-09T18:56:11.359Z,13.30
2019-05-09T18:58:40.533Z,13.20
2019-05-09T19:01:09.426Z,13.10
2019-05-09T19:03:38.787Z,13.00
2019-05-09T19:06:09.228Z,12.90
2019-05-09T19:08:45.584Z,12.90
2019-05-09T19:11:15.951Z,12.90
2019-05-09T19:13:47.702Z,12.80
2019-05-09T19:16:49.618Z,12.90
2019-05-09T19:19:29.958Z,12.80
2019-05-09T19:22:04.989Z,12.90
2019-05-09T19:24:32.197Z,12.90
2019-05-09T19:27:01.642Z,13.10
2019-05-09T19:29:33.273Z,12.90
2019-05-09T19:32:05.251Z,12.80
2019-05-09T19:34:40.723Z,12.80
2019-05-09T19:37:13.859Z,13.00
2019-05-09T19:39:43.276Z,12.80
2019-05-09T19:42:13.686Z,12.90
2019-05-09T19:44:49.051Z,12.80
2019-05-09T19:47:21.507Z,12.80
2019-05-09T19:49:53.013Z,12.80
2019-05-09T19:52:36.185Z,12.80
2019-05-09T19:54:56.749Z,12.70
2019-05-09T19:57:32.697Z,12.80
2019-05-09T20:00:03.774Z,12.80
2019-05-09T20:02:33.054Z,12.70
2019-05-09T20:05:03.320Z,12.70
2019-05-09T20:07:32.397Z,12.70
2019-05-09T20:10:19.994Z,12.60
2019-05-09T20:13:10.157Z,12.70
2019-05-09T20:15:43.834Z,12.60
2019-05-09T20:18:14.309Z,12.60
2019-05-09T20:20:48.037Z,12.70
2019-05-09T20:23:17.205Z,12.70
2019-05-09T20:25:46.817Z,12.60
2019-05-09T20:28:24.552Z,12.50
2019-05-09T20:30:54.577Z,12.60
2019-05-09T20:33:26.622Z,12.60
2019-05-09T20:35:55.945Z,12.50
2019-05-09T20:38:24.943Z,12.60
2019-05-09T20:40:54.287Z,12.50
2019-05-09T20:43:23.645Z,12.50
2019-05-09T20:45:53.039Z,12.60
2019-05-09T20:48:22.322Z,12.50
2019-05-09T20:50:51.627Z,12.50
2019-05-09T20:53:21.448Z,12.60
2019-05-09T20:55:50.837Z,12.60
2019-05-09T20:58:20.130Z,12.50
2019-05-09T21:00:49.275Z,12.50
2019-05-09T21:03:18.558Z,12.50
2019-05-09T21:05:50.721Z,12.50
2019-05-09T21:08:20.618Z,12.70
2019-05-09T21:10:49.917Z,12.70
2019-05-09T21:13:19.034Z,12.70
2019-05-09T21:16:00.905Z,12.70
2019-05-09T21:18:49.287Z,12.80
2019-05-09T21:21:26.474Z,12.80
2019-05-09T21:23:57.410Z,12.70
2019-05-09T21:26:43.114Z,12.60
2019-05-09T21:29:12.344Z,12.60
2019-05-09T21:31:41.421Z,12.70
2019-05-09T21:34:11.073Z,12.60
2019-05-09T21:36:39.862Z,12.60
2019-05-09T21:39:08.757Z,12.50
2019-05-09T21:41:37.894Z,12.50
2019-05-09T21:44:06.845Z,12.50
2019-05-09T21:46:35.785Z,12.40
2019-05-09T21:49:07.945Z,12.40
2019-05-09T21:51:36.770Z,12.50
2019-05-09T21:54:05.729Z,12.50
2019-05-09T21:56:34.787Z,12.40
2019-05-09T21:59:04.024Z,12.40
2019-05-09T22:01:33.015Z,12.40
2019-05-09T22:04:01.956Z,12.40
2019-05-09T22:06:30.926Z,12.40
2019-05-09T22:08:59.829Z,12.30
2019-05-09T22:11:28.846Z,12.40
2019-05-09T22:13:57.760Z,12.40
2019-05-09T22:16:30.710Z,12.40
2019-05-09T22:18:59.774Z,12.40
2019-05-09T22:21:28.659Z,12.40
2019-05-09T22:23:57.702Z,12.40
2019-05-09T22:26:26.821Z,12.30
2019-05-09T22:28:55.735Z,12.40
2019-05-09T22:31:24.613Z,12.30
2019-05-09T22:33:54.167Z,12.40
2019-05-09T22:36:23.040Z,12.40
2019-05-09T22:38:51.944Z,12.30
2019-05-09T22:41:20.974Z,12.30
2019-05-09T22:43:50.009Z,12.30
2019-05-09T22:46:18.949Z,12.30
2019-05-09T22:48:47.885Z,12.30
2019-05-09T22:51:17.055Z,12.20
2019-05-09T22:53:45.964Z,12.30
2019-05-09T22:56:15.399Z,12.30
2019-05-09T22:58:44.183Z,12.20
2019-05-09T23:01:13.735Z,12.20
2019-05-09T23:03:42.922Z,12.20
2019-05-09T23:06:11.872Z,12.30
2019-05-09T23:08:40.890Z,12.20
2019-05-09T23:11:09.925Z,12.20
2019-05-09T23:13:54.046Z,12.20
2019-05-09T23:16:27.641Z,12.20
2019-05-09T23:18:56.513Z,12.10
2019-05-09T23:21:27.429Z,12.10
2019-05-09T23:24:07.857Z,12.10
2019-05-09T23:26:36.834Z,12.10
2019-05-09T23:29:05.909Z,12.10
2019-05-09T23:31:54.025Z,12.10
2019-05-09T23:34:22.905Z,12.10
2019-05-09T23:36:51.801Z,12.00
2019-05-09T23:39:26.202Z,12.10
2019-05-09T23:41:55.137Z,12.00
2019-05-09T23:44:24.157Z,12.00
2019-05-09T23:46:53.221Z,12.00
2019-05-09T23:49:22.104Z,12.00
2019-05-09T23:51:50.981Z,11.90
2019-05-09T23:54:47.788Z,11.90
2019-05-09T23:57:29.044Z,11.90
